sensor_id;sensor_type;location;lat;lon;timestamp;P1;durP1;ratioP1;P2;durP2;ratioP2
49584;SDS011;35491;49.142;9.210;2023-01-04T00:00:33;12.05;;;6.72;;
49584;SDS011;35491;49.142;9.210;2023-01-04T00:01:35;10.23;;;6.75;;
49584;SDS011;35491;49.142;9.210;2023-01-04T00:02:42;10.88;;;6.60;;
49584;SDS011;35491;49.142;9.210;2023-01-04T00:03:44;12.88;;;8.13;;
49584;SDS011;35491;49.142;9.210;2023-01-04T00:04:49;12.60;;;7.75;;
49584;SDS011;35491;49.142;9.210;2023-01-04T00:05:51;9.70;;;6.93;;
49584;SDS011;35491;49.142;9.210;2023-01-04T00:06:55;12.05;;;7.78;;
49584;SDS011;35491;49.142;9.210;2023-01-04T00:07:57;14.80;;;7.15;;
49584;SDS011;35491;49.142;9.210;2023-01-04T00:09:01;10.40;;;6.97;;
49584;SDS011;35491;49.142;9.210;2023-01-04T00:10:03;11.95;;;7.15;;
49584;SDS011;35491;49.142;9.210;2023-01-04T00:11:10;10.23;;;7.20;;
49584;SDS011;35491;49.142;9.210;2023-01-04T00:12:13;11.57;;;7.68;;
49584;SDS011;35491;49.142;9.210;2023-01-04T00:13:18;10.10;;;7.22;;
49584;SDS011;35491;49.142;9.210;2023-01-04T00:14:20;10.48;;;7.60;;
49584;SDS011;35491;49.142;9.210;2023-01-04T00:15:24;10.75;;;7.40;;
49584;SDS011;35491;49.142;9.210;2023-01-04T00:16:26;11.65;;;7.47;;
49584;SDS011;35491;49.142;9.210;2023-01-04T00:17:31;11.35;;;7.10;;
49584;SDS011;35491;49.142;9.210;2023-01-04T00:18:36;8.80;;;6.18;;
49584;SDS011;35491;49.142;9.210;2023-01-04T00:19:41;10.68;;;6.53;;
49584;SDS011;35491;49.142;9.210;2023-01-04T00:20:42;10.85;;;6.10;;
49584;SDS011;35491;49.142;9.210;2023-01-04T00:21:47;9.27;;;6.68;;
49584;SDS011;35491;49.142;9.210;2023-01-04T00:22:51;8.57;;;6.03;;
49584;SDS011;35491;49.142;9.210;2023-01-04T00:23:53;8.77;;;5.38;;
49584;SDS011;35491;49.142;9.210;2023-01-04T00:24:59;9.73;;;6.00;;
49584;SDS011;35491;49.142;9.210;2023-01-04T00:26:01;9.27;;;6.13;;
49584;SDS011;35491;49.142;9.210;2023-01-04T00:27:05;9.85;;;6.32;;
49584;SDS011;35491;49.142;9.210;2023-01-04T00:28:06;10.52;;;6.13;;
49584;SDS011;35491;49.142;9.210;2023-01-04T00:29:11;8.90;;;6.20;;
49584;SDS011;35491;49.142;9.210;2023-01-04T00:30:13;9.15;;;6.57;;
49584;SDS011;35491;49.142;9.210;2023-01-04T00:31:18;11.18;;;6.68;;
49584;SDS011;35491;49.142;9.210;2023-01-04T00:32:19;11.18;;;7.18;;
49584;SDS011;35491;49.142;9.210;2023-01-04T00:33:24;8.75;;;6.57;;
49584;SDS011;35491;49.142;9.210;2023-01-04T00:34:28;9.93;;;6.78;;
49584;SDS011;35491;49.142;9.210;2023-01-04T00:35:32;11.02;;;6.47;;
49584;SDS011;35491;49.142;9.210;2023-01-04T00:36:34;8.73;;;6.35;;
49584;SDS011;35491;49.142;9.210;2023-01-04T00:37:38;8.57;;;6.28;;
49584;SDS011;35491;49.142;9.210;2023-01-04T00:38:39;11.05;;;6.72;;
49584;SDS011;35491;49.142;9.210;2023-01-04T00:39:45;8.55;;;6.05;;
49584;SDS011;35491;49.142;9.210;2023-01-04T00:40:46;7.90;;;5.63;;
49584;SDS011;35491;49.142;9.210;2023-01-04T00:41:51;11.23;;;6.68;;
49584;SDS011;35491;49.142;9.210;2023-01-04T00:44:24;10.15;;;7.03;;
49584;SDS011;35491;49.142;9.210;2023-01-04T00:45:36;11.30;;;7.70;;
49584;SDS011;35491;49.142;9.210;2023-01-04T01:17:25;12.88;;;7.63;;
49584;SDS011;35491;49.142;9.210;2023-01-04T01:18:33;12.07;;;8.00;;
49584;SDS011;35491;49.142;9.210;2023-01-04T01:57:09;8.38;;;5.10;;
49584;SDS011;35491;49.142;9.210;2023-01-04T01:59:26;9.38;;;5.63;;
49584;SDS011;35491;49.142;9.210;2023-01-04T02:00:29;8.32;;;5.47;;
49584;SDS011;35491;49.142;9.210;2023-01-04T02:01:34;8.18;;;5.20;;
49584;SDS011;35491;49.142;9.210;2023-01-04T02:02:36;8.55;;;5.40;;
49584;SDS011;35491;49.142;9.210;2023-01-04T02:03:42;9.88;;;5.85;;
49584;SDS011;35491;49.142;9.210;2023-01-04T02:04:53;7.68;;;5.40;;
49584;SDS011;35491;49.142;9.210;2023-01-04T02:06:01;7.88;;;5.68;;
49584;SDS011;35491;49.142;9.210;2023-01-04T02:07:20;7.75;;;5.25;;
49584;SDS011;35491;49.142;9.210;2023-01-04T02:08:24;7.78;;;5.25;;
49584;SDS011;35491;49.142;9.210;2023-01-04T02:09:29;8.88;;;5.45;;
49584;SDS011;35491;49.142;9.210;2023-01-04T02:10:32;7.78;;;5.22;;
49584;SDS011;35491;49.142;9.210;2023-01-04T02:11:39;8.05;;;5.78;;
49584;SDS011;35491;49.142;9.210;2023-01-04T02:12:43;6.90;;;4.93;;
49584;SDS011;35491;49.142;9.210;2023-01-04T02:14:01;7.05;;;5.13;;
49584;SDS011;35491;49.142;9.210;2023-01-04T02:36:37;7.22;;;5.22;;
49584;SDS011;35491;49.142;9.210;2023-01-04T02:41:13;7.20;;;4.75;;
49584;SDS011;35491;49.142;9.210;2023-01-04T02:42:31;8.48;;;4.80;;
49584;SDS011;35491;49.142;9.210;2023-01-04T02:44:06;7.68;;;4.82;;
49584;SDS011;35491;49.142;9.210;2023-01-04T02:45:37;6.65;;;4.55;;
49584;SDS011;35491;49.142;9.210;2023-01-04T02:48:11;7.00;;;4.53;;
49584;SDS011;35491;49.142;9.210;2023-01-04T02:49:32;8.10;;;4.65;;
49584;SDS011;35491;49.142;9.210;2023-01-04T02:50:52;6.50;;;4.55;;
49584;SDS011;35491;49.142;9.210;2023-01-04T02:51:58;6.88;;;4.88;;
49584;SDS011;35491;49.142;9.210;2023-01-04T02:53:00;8.70;;;5.60;;
49584;SDS011;35491;49.142;9.210;2023-01-04T02:54:08;9.00;;;5.20;;
49584;SDS011;35491;49.142;9.210;2023-01-04T02:55:17;6.45;;;4.28;;
49584;SDS011;35491;49.142;9.210;2023-01-04T02:56:31;6.63;;;4.50;;
49584;SDS011;35491;49.142;9.210;2023-01-04T02:57:47;7.28;;;4.60;;
49584;SDS011;35491;49.142;9.210;2023-01-04T02:59:01;6.90;;;4.40;;
49584;SDS011;35491;49.142;9.210;2023-01-04T03:00:40;6.60;;;4.68;;
49584;SDS011;35491;49.142;9.210;2023-01-04T03:03:35;5.78;;;3.92;;
49584;SDS011;35491;49.142;9.210;2023-01-04T03:05:04;7.47;;;4.90;;
49584;SDS011;35491;49.142;9.210;2023-01-04T03:06:32;6.85;;;4.43;;
49584;SDS011;35491;49.142;9.210;2023-01-04T03:07:45;6.03;;;4.45;;
49584;SDS011;35491;49.142;9.210;2023-01-04T03:08:56;6.15;;;4.35;;
49584;SDS011;35491;49.142;9.210;2023-01-04T03:10:06;6.90;;;4.60;;
49584;SDS011;35491;49.142;9.210;2023-01-04T03:11:15;6.32;;;4.22;;
49584;SDS011;35491;49.142;9.210;2023-01-04T03:12:33;8.75;;;4.78;;
49584;SDS011;35491;49.142;9.210;2023-01-04T03:13:44;6.53;;;4.47;;
49584;SDS011;35491;49.142;9.210;2023-01-04T03:14:49;7.72;;;4.72;;
49584;SDS011;35491;49.142;9.210;2023-01-04T03:15:55;7.72;;;4.55;;
49584;SDS011;35491;49.142;9.210;2023-01-04T03:17:05;6.60;;;4.30;;
49584;SDS011;35491;49.142;9.210;2023-01-04T03:18:17;7.70;;;4.25;;
49584;SDS011;35491;49.142;9.210;2023-01-04T03:19:26;5.88;;;4.05;;
49584;SDS011;35491;49.142;9.210;2023-01-04T03:20:43;6.85;;;4.43;;
49584;SDS011;35491;49.142;9.210;2023-01-04T03:21:52;6.38;;;3.83;;
49584;SDS011;35491;49.142;9.210;2023-01-04T03:22:54;7.03;;;4.20;;
49584;SDS011;35491;49.142;9.210;2023-01-04T03:24:14;7.05;;;3.90;;
49584;SDS011;35491;49.142;9.210;2023-01-04T03:25:32;7.18;;;4.32;;
49584;SDS011;35491;49.142;9.210;2023-01-04T03:26:54;7.53;;;4.45;;
49584;SDS011;35491;49.142;9.210;2023-01-04T03:28:35;6.75;;;4.45;;
49584;SDS011;35491;49.142;9.210;2023-01-04T03:41:10;6.93;;;4.53;;
49584;SDS011;35491;49.142;9.210;2023-01-04T03:42:34;6.28;;;4.35;;
49584;SDS011;35491;49.142;9.210;2023-01-04T03:44:00;8.95;;;4.95;;
49584;SDS011;35491;49.142;9.210;2023-01-04T03:45:24;6.45;;;4.10;;
49584;SDS011;35491;49.142;9.210;2023-01-04T03:46:43;6.15;;;4.00;;
49584;SDS011;35491;49.142;9.210;2023-01-04T03:48:06;7.47;;;4.38;;
49584;SDS011;35491;49.142;9.210;2023-01-04T03:49:32;7.93;;;4.63;;
49584;SDS011;35491;49.142;9.210;2023-01-04T03:50:43;6.03;;;3.92;;
49584;SDS011;35491;49.142;9.210;2023-01-04T03:57:50;6.80;;;4.55;;
49584;SDS011;35491;49.142;9.210;2023-01-04T03:59:38;6.45;;;4.50;;
49584;SDS011;35491;49.142;9.210;2023-01-04T04:04:52;8.95;;;4.50;;
49584;SDS011;35491;49.142;9.210;2023-01-04T04:19:52;6.28;;;3.60;;
49584;SDS011;35491;49.142;9.210;2023-01-04T04:21:06;7.60;;;3.80;;
49584;SDS011;35491;49.142;9.210;2023-01-04T04:25:52;5.68;;;3.58;;
49584;SDS011;35491;49.142;9.210;2023-01-04T04:27:07;6.15;;;3.45;;
49584;SDS011;35491;49.142;9.210;2023-01-04T04:28:16;5.65;;;3.65;;
49584;SDS011;35491;49.142;9.210;2023-01-04T04:29:21;5.80;;;3.47;;
49584;SDS011;35491;49.142;9.210;2023-01-04T04:30:27;5.80;;;3.72;;
49584;SDS011;35491;49.142;9.210;2023-01-04T04:31:39;5.78;;;3.38;;
49584;SDS011;35491;49.142;9.210;2023-01-04T04:33:03;5.18;;;3.22;;
49584;SDS011;35491;49.142;9.210;2023-01-04T04:34:08;5.88;;;3.45;;
49584;SDS011;35491;49.142;9.210;2023-01-04T04:35:10;5.25;;;3.38;;
49584;SDS011;35491;49.142;9.210;2023-01-04T04:36:18;5.00;;;3.17;;
49584;SDS011;35491;49.142;9.210;2023-01-04T04:37:23;5.95;;;3.20;;
49584;SDS011;35491;49.142;9.210;2023-01-04T04:38:28;5.50;;;3.00;;
49584;SDS011;35491;49.142;9.210;2023-01-04T04:39:33;5.00;;;2.80;;
49584;SDS011;35491;49.142;9.210;2023-01-04T04:40:57;5.18;;;3.00;;
49584;SDS011;35491;49.142;9.210;2023-01-04T04:42:14;4.75;;;3.33;;
49584;SDS011;35491;49.142;9.210;2023-01-04T04:43:16;5.00;;;3.13;;
49584;SDS011;35491;49.142;9.210;2023-01-04T04:44:47;5.22;;;3.55;;
49584;SDS011;35491;49.142;9.210;2023-01-04T04:45:55;5.75;;;3.08;;
49584;SDS011;35491;49.142;9.210;2023-01-04T04:47:05;5.75;;;3.25;;
49584;SDS011;35491;49.142;9.210;2023-01-04T04:50:30;5.35;;;3.17;;
49584;SDS011;35491;49.142;9.210;2023-01-04T04:51:38;5.20;;;3.17;;
49584;SDS011;35491;49.142;9.210;2023-01-04T04:52:58;5.28;;;3.17;;
49584;SDS011;35491;49.142;9.210;2023-01-04T04:54:03;5.45;;;3.17;;
49584;SDS011;35491;49.142;9.210;2023-01-04T04:55:16;5.50;;;3.40;;
49584;SDS011;35491;49.142;9.210;2023-01-04T04:56:18;4.30;;;2.70;;
49584;SDS011;35491;49.142;9.210;2023-01-04T04:57:25;5.05;;;3.03;;
49584;SDS011;35491;49.142;9.210;2023-01-04T05:27:25;5.35;;;3.00;;
49584;SDS011;35491;49.142;9.210;2023-01-04T05:28:27;5.45;;;3.20;;
49584;SDS011;35491;49.142;9.210;2023-01-04T05:29:31;4.93;;;3.00;;
49584;SDS011;35491;49.142;9.210;2023-01-04T05:30:48;4.78;;;2.90;;
49584;SDS011;35491;49.142;9.210;2023-01-04T05:31:50;6.35;;;3.00;;
49584;SDS011;35491;49.142;9.210;2023-01-04T05:32:53;4.53;;;2.70;;
49584;SDS011;35491;49.142;9.210;2023-01-04T05:33:58;5.05;;;3.00;;
49584;SDS011;35491;49.142;9.210;2023-01-04T05:35:06;4.72;;;2.72;;
49584;SDS011;35491;49.142;9.210;2023-01-04T05:36:12;5.35;;;2.78;;
49584;SDS011;35491;49.142;9.210;2023-01-04T05:37:21;5.13;;;3.05;;
49584;SDS011;35491;49.142;9.210;2023-01-04T05:38:26;4.72;;;2.70;;
49584;SDS011;35491;49.142;9.210;2023-01-04T05:39:36;4.82;;;2.50;;
49584;SDS011;35491;49.142;9.210;2023-01-04T05:40:42;5.07;;;3.05;;
49584;SDS011;35491;49.142;9.210;2023-01-04T05:41:59;4.57;;;2.75;;
49584;SDS011;35491;49.142;9.210;2023-01-04T05:43:44;4.40;;;2.70;;
49584;SDS011;35491;49.142;9.210;2023-01-04T05:45:16;4.15;;;2.33;;
49584;SDS011;35491;49.142;9.210;2023-01-04T05:46:54;5.03;;;2.40;;
49584;SDS011;35491;49.142;9.210;2023-01-04T05:48:20;5.03;;;2.65;;
49584;SDS011;35491;49.142;9.210;2023-01-04T05:49:48;7.35;;;2.42;;
49584;SDS011;35491;49.142;9.210;2023-01-04T05:50:53;4.47;;;2.53;;
49584;SDS011;35491;49.142;9.210;2023-01-04T05:52:39;4.60;;;2.55;;
49584;SDS011;35491;49.142;9.210;2023-01-04T05:54:07;5.30;;;2.67;;
49584;SDS011;35491;49.142;9.210;2023-01-04T05:55:11;5.40;;;2.72;;
49584;SDS011;35491;49.142;9.210;2023-01-04T05:56:18;4.25;;;2.22;;
49584;SDS011;35491;49.142;9.210;2023-01-04T05:57:19;5.20;;;2.80;;
49584;SDS011;35491;49.142;9.210;2023-01-04T05:58:36;4.75;;;2.45;;
49584;SDS011;35491;49.142;9.210;2023-01-04T05:59:38;4.93;;;2.35;;
49584;SDS011;35491;49.142;9.210;2023-01-04T06:00:44;5.00;;;2.60;;
49584;SDS011;35491;49.142;9.210;2023-01-04T06:01:49;4.28;;;2.40;;
49584;SDS011;35491;49.142;9.210;2023-01-04T06:02:50;5.18;;;2.80;;
49584;SDS011;35491;49.142;9.210;2023-01-04T06:04:04;5.18;;;2.60;;
49584;SDS011;35491;49.142;9.210;2023-01-04T06:05:08;5.20;;;2.75;;
49584;SDS011;35491;49.142;9.210;2023-01-04T06:06:12;3.85;;;2.20;;
49584;SDS011;35491;49.142;9.210;2023-01-04T06:07:14;4.43;;;2.75;;
49584;SDS011;35491;49.142;9.210;2023-01-04T06:08:19;4.68;;;2.50;;
49584;SDS011;35491;49.142;9.210;2023-01-04T06:09:20;4.57;;;2.58;;
49584;SDS011;35491;49.142;9.210;2023-01-04T06:10:24;4.63;;;2.33;;
49584;SDS011;35491;49.142;9.210;2023-01-04T06:11:28;4.32;;;2.15;;
49584;SDS011;35491;49.142;9.210;2023-01-04T06:12:30;4.75;;;2.60;;
49584;SDS011;35491;49.142;9.210;2023-01-04T06:13:37;4.32;;;2.30;;
49584;SDS011;35491;49.142;9.210;2023-01-04T06:14:39;4.47;;;2.20;;
49584;SDS011;35491;49.142;9.210;2023-01-04T06:15:43;3.97;;;2.30;;
49584;SDS011;35491;49.142;9.210;2023-01-04T06:16:45;4.75;;;2.55;;
49584;SDS011;35491;49.142;9.210;2023-01-04T06:17:49;4.78;;;2.42;;
49584;SDS011;35491;49.142;9.210;2023-01-04T06:18:51;4.28;;;2.10;;
49584;SDS011;35491;49.142;9.210;2023-01-04T06:19:55;3.85;;;2.00;;
49584;SDS011;35491;49.142;9.210;2023-01-04T06:21:00;4.25;;;2.00;;
49584;SDS011;35491;49.142;9.210;2023-01-04T06:22:09;4.75;;;2.60;;
49584;SDS011;35491;49.142;9.210;2023-01-04T06:23:17;4.55;;;2.50;;
49584;SDS011;35491;49.142;9.210;2023-01-04T06:24:19;6.38;;;2.60;;
49584;SDS011;35491;49.142;9.210;2023-01-04T06:25:23;4.05;;;2.20;;
49584;SDS011;35491;49.142;9.210;2023-01-04T06:26:25;4.00;;;2.08;;
49584;SDS011;35491;49.142;9.210;2023-01-04T06:27:29;4.85;;;2.30;;
49584;SDS011;35491;49.142;9.210;2023-01-04T06:28:38;3.78;;;1.80;;
49584;SDS011;35491;49.142;9.210;2023-01-04T06:30:02;5.05;;;2.25;;
49584;SDS011;35491;49.142;9.210;2023-01-04T06:31:09;3.65;;;1.95;;
49584;SDS011;35491;49.142;9.210;2023-01-04T06:32:11;4.82;;;2.95;;
49584;SDS011;35491;49.142;9.210;2023-01-04T06:33:16;5.75;;;2.38;;
49584;SDS011;35491;49.142;9.210;2023-01-04T06:34:17;5.00;;;2.67;;
49584;SDS011;35491;49.142;9.210;2023-01-04T06:35:22;4.57;;;2.30;;
49584;SDS011;35491;49.142;9.210;2023-01-04T06:36:23;4.32;;;2.42;;
49584;SDS011;35491;49.142;9.210;2023-01-04T06:37:29;5.50;;;2.38;;
49584;SDS011;35491;49.142;9.210;2023-01-04T06:38:31;4.93;;;2.90;;
49584;SDS011;35491;49.142;9.210;2023-01-04T06:39:35;4.57;;;2.30;;
49584;SDS011;35491;49.142;9.210;2023-01-04T06:57:53;3.80;;;1.90;;
49584;SDS011;35491;49.142;9.210;2023-01-04T07:01:36;6.05;;;2.15;;
49584;SDS011;35491;49.142;9.210;2023-01-04T07:03:06;5.55;;;2.65;;
49584;SDS011;35491;49.142;9.210;2023-01-04T07:04:33;3.75;;;2.00;;
49584;SDS011;35491;49.142;9.210;2023-01-04T07:16:57;5.63;;;2.53;;
49584;SDS011;35491;49.142;9.210;2023-01-04T09:12:56;9.10;;;4.80;;
49584;SDS011;35491;49.142;9.210;2023-01-04T09:14:01;11.68;;;4.55;;
49584;SDS011;35491;49.142;9.210;2023-01-04T09:17:32;6.07;;;2.75;;
49584;SDS011;35491;49.142;9.210;2023-01-04T09:19:02;4.13;;;1.85;;
49584;SDS011;35491;49.142;9.210;2023-01-04T09:26:11;3.75;;;1.33;;
49584;SDS011;35491;49.142;9.210;2023-01-04T09:27:23;4.22;;;1.73;;
49584;SDS011;35491;49.142;9.210;2023-01-04T09:28:38;3.75;;;1.40;;
49584;SDS011;35491;49.142;9.210;2023-01-04T09:29:46;5.53;;;1.50;;
49584;SDS011;35491;49.142;9.210;2023-01-04T09:31:03;3.97;;;1.63;;
49584;SDS011;35491;49.142;9.210;2023-01-04T09:34:20;4.15;;;1.50;;
49584;SDS011;35491;49.142;9.210;2023-01-04T09:35:34;6.65;;;1.98;;
49584;SDS011;35491;49.142;9.210;2023-01-04T09:36:49;4.68;;;1.20;;
49584;SDS011;35491;49.142;9.210;2023-01-04T09:37:55;5.22;;;1.70;;
49584;SDS011;35491;49.142;9.210;2023-01-04T09:39:11;5.35;;;1.55;;
49584;SDS011;35491;49.142;9.210;2023-01-04T09:40:20;4.03;;;1.85;;
49584;SDS011;35491;49.142;9.210;2023-01-04T09:43:32;7.07;;;2.40;;
49584;SDS011;35491;49.142;9.210;2023-01-04T09:46:30;5.78;;;2.20;;
49584;SDS011;35491;49.142;9.210;2023-01-04T09:47:41;5.80;;;1.90;;
49584;SDS011;35491;49.142;9.210;2023-01-04T09:49:09;6.20;;;2.05;;
49584;SDS011;35491;49.142;9.210;2023-01-04T09:50:26;5.20;;;1.80;;
49584;SDS011;35491;49.142;9.210;2023-01-04T09:51:40;6.13;;;1.67;;
49584;SDS011;35491;49.142;9.210;2023-01-04T09:53:20;4.55;;;1.95;;
49584;SDS011;35491;49.142;9.210;2023-01-04T09:54:48;3.78;;;1.33;;
49584;SDS011;35491;49.142;9.210;2023-01-04T09:56:17;4.43;;;1.75;;
49584;SDS011;35491;49.142;9.210;2023-01-04T10:01:23;7.30;;;2.40;;
49584;SDS011;35491;49.142;9.210;2023-01-04T10:04:19;4.53;;;1.45;;
49584;SDS011;35491;49.142;9.210;2023-01-04T10:07:39;4.82;;;1.60;;
49584;SDS011;35491;49.142;9.210;2023-01-04T10:09:05;5.78;;;1.40;;
49584;SDS011;35491;49.142;9.210;2023-01-04T10:11:46;6.07;;;2.10;;
49584;SDS011;35491;49.142;9.210;2023-01-04T10:13:02;4.20;;;1.65;;
49584;SDS011;35491;49.142;9.210;2023-01-04T10:14:37;4.38;;;1.50;;
49584;SDS011;35491;49.142;9.210;2023-01-04T10:16:02;3.72;;;1.60;;
49584;SDS011;35491;49.142;9.210;2023-01-04T10:17:34;3.85;;;1.30;;
49584;SDS011;35491;49.142;9.210;2023-01-04T10:19:15;4.15;;;1.40;;
49584;SDS011;35491;49.142;9.210;2023-01-04T10:20:56;4.60;;;1.58;;
49584;SDS011;35491;49.142;9.210;2023-01-04T10:22:34;5.15;;;1.60;;
49584;SDS011;35491;49.142;9.210;2023-01-04T10:24:13;3.88;;;1.30;;
49584;SDS011;35491;49.142;9.210;2023-01-04T10:26:04;3.47;;;1.30;;
49584;SDS011;35491;49.142;9.210;2023-01-04T10:27:22;3.58;;;1.50;;
49584;SDS011;35491;49.142;9.210;2023-01-04T10:28:38;4.50;;;1.50;;
49584;SDS011;35491;49.142;9.210;2023-01-04T10:30:00;5.82;;;1.88;;
49584;SDS011;35491;49.142;9.210;2023-01-04T10:31:37;4.22;;;1.80;;
49584;SDS011;35491;49.142;9.210;2023-01-04T10:32:53;4.78;;;1.60;;
49584;SDS011;35491;49.142;9.210;2023-01-04T10:34:05;4.03;;;1.58;;
49584;SDS011;35491;49.142;9.210;2023-01-04T10:35:19;4.50;;;2.00;;
49584;SDS011;35491;49.142;9.210;2023-01-04T10:36:26;4.93;;;1.67;;
49584;SDS011;35491;49.142;9.210;2023-01-04T10:37:52;4.88;;;1.85;;
49584;SDS011;35491;49.142;9.210;2023-01-04T10:39:04;4.45;;;1.95;;
49584;SDS011;35491;49.142;9.210;2023-01-04T10:40:19;5.88;;;1.98;;
49584;SDS011;35491;49.142;9.210;2023-01-04T10:41:48;5.03;;;1.90;;
49584;SDS011;35491;49.142;9.210;2023-01-04T10:43:39;5.03;;;1.60;;
49584;SDS011;35491;49.142;9.210;2023-01-04T10:45:29;5.57;;;1.50;;
49584;SDS011;35491;49.142;9.210;2023-01-04T10:46:59;4.07;;;1.20;;
49584;SDS011;35491;49.142;9.210;2023-01-04T10:48:15;5.32;;;1.48;;
49584;SDS011;35491;49.142;9.210;2023-01-04T10:49:51;5.05;;;1.83;;
49584;SDS011;35491;49.142;9.210;2023-01-04T10:51:30;4.10;;;1.40;;
49584;SDS011;35491;49.142;9.210;2023-01-04T10:53:00;3.63;;;1.38;;
49584;SDS011;35491;49.142;9.210;2023-01-04T10:55:02;4.47;;;1.80;;
49584;SDS011;35491;49.142;9.210;2023-01-04T10:56:27;8.82;;;4.50;;
49584;SDS011;35491;49.142;9.210;2023-01-04T10:57:37;8.60;;;5.28;;
49584;SDS011;35491;49.142;9.210;2023-01-04T10:58:46;9.15;;;4.70;;
49584;SDS011;35491;49.142;9.210;2023-01-04T10:59:57;7.97;;;4.80;;
49584;SDS011;35491;49.142;9.210;2023-01-04T11:01:17;6.88;;;3.80;;
49584;SDS011;35491;49.142;9.210;2023-01-04T11:02:36;5.85;;;3.33;;
49584;SDS011;35491;49.142;9.210;2023-01-04T11:03:50;6.25;;;3.00;;
49584;SDS011;35491;49.142;9.210;2023-01-04T11:06:07;5.20;;;2.33;;
49584;SDS011;35491;49.142;9.210;2023-01-04T11:07:19;4.30;;;1.95;;
49584;SDS011;35491;49.142;9.210;2023-01-04T11:08:28;4.40;;;1.83;;
49584;SDS011;35491;49.142;9.210;2023-01-04T11:09:41;4.85;;;1.80;;
49584;SDS011;35491;49.142;9.210;2023-01-04T11:13:32;4.22;;;1.50;;
49584;SDS011;35491;49.142;9.210;2023-01-04T11:14:42;4.50;;;1.42;;
49584;SDS011;35491;49.142;9.210;2023-01-04T11:18:12;5.10;;;1.50;;
49584;SDS011;35491;49.142;9.210;2023-01-04T11:19:53;4.23;;;1.40;;
49584;SDS011;35491;49.142;9.210;2023-01-04T11:26:02;2.92;;;1.10;;
49584;SDS011;35491;49.142;9.210;2023-01-04T11:31:16;3.40;;;1.55;;
49584;SDS011;35491;49.142;9.210;2023-01-04T11:35:05;6.03;;;1.48;;
49584;SDS011;35491;49.142;9.210;2023-01-04T11:39:42;4.72;;;1.60;;
49584;SDS011;35491;49.142;9.210;2023-01-04T11:44:33;3.53;;;1.20;;
49584;SDS011;35491;49.142;9.210;2023-01-04T11:48:02;4.10;;;1.30;;
49584;SDS011;35491;49.142;9.210;2023-01-04T11:49:42;5.53;;;1.50;;
49584;SDS011;35491;49.142;9.210;2023-01-04T11:51:54;3.10;;;1.17;;
49584;SDS011;35491;49.142;9.210;2023-01-04T11:54:28;4.60;;;1.10;;
49584;SDS011;35491;49.142;9.210;2023-01-04T12:01:48;2.95;;;1.20;;
49584;SDS011;35491;49.142;9.210;2023-01-04T16:34:53;4.97;;;1.50;;
49584;SDS011;35491;49.142;9.210;2023-01-04T16:37:46;3.75;;;1.33;;
49584;SDS011;35491;49.142;9.210;2023-01-04T16:38:57;4.05;;;1.30;;
49584;SDS011;35491;49.142;9.210;2023-01-04T16:40:23;3.60;;;1.27;;
49584;SDS011;35491;49.142;9.210;2023-01-04T16:44:24;2.83;;;1.00;;
49584;SDS011;35491;49.142;9.210;2023-01-04T16:45:44;2.75;;;0.95;;
49584;SDS011;35491;49.142;9.210;2023-01-04T16:47:12;2.83;;;1.08;;
49584;SDS011;35491;49.142;9.210;2023-01-04T16:48:34;3.28;;;1.10;;
49584;SDS011;35491;49.142;9.210;2023-01-04T16:53:28;1.85;;;0.70;;
49584;SDS011;35491;49.142;9.210;2023-01-04T16:55:39;2.25;;;0.70;;
49584;SDS011;35491;49.142;9.210;2023-01-04T17:00:03;2.60;;;1.10;;
49584;SDS011;35491;49.142;9.210;2023-01-04T17:01:31;2.95;;;0.80;;
49584;SDS011;35491;49.142;9.210;2023-01-04T17:04:42;2.50;;;0.90;;
49584;SDS011;35491;49.142;9.210;2023-01-04T17:10:40;2.25;;;0.80;;
49584;SDS011;35491;49.142;9.210;2023-01-04T17:13:33;2.25;;;0.77;;
49584;SDS011;35491;49.142;9.210;2023-01-04T17:14:46;4.30;;;0.98;;
49584;SDS011;35491;49.142;9.210;2023-01-04T17:16:15;2.95;;;1.00;;
49584;SDS011;35491;49.142;9.210;2023-01-04T17:19:16;3.03;;;0.87;;
49584;SDS011;35491;49.142;9.210;2023-01-04T17:21:24;2.40;;;0.90;;
49584;SDS011;35491;49.142;9.210;2023-01-04T17:38:54;3.05;;;1.16;;
49584;SDS011;35491;49.142;9.210;2023-01-04T17:42:58;2.83;;;1.02;;
49584;SDS011;35491;49.142;9.210;2023-01-04T17:44:15;2.38;;;0.93;;
49584;SDS011;35491;49.142;9.210;2023-01-04T17:45:31;2.90;;;0.90;;
49584;SDS011;35491;49.142;9.210;2023-01-04T17:48:15;2.35;;;0.80;;
49584;SDS011;35491;49.142;9.210;2023-01-04T18:32:34;1.90;;;0.60;;
49584;SDS011;35491;49.142;9.210;2023-01-04T18:44:44;2.72;;;0.82;;
49584;SDS011;35491;49.142;9.210;2023-01-04T18:46:11;2.13;;;0.70;;
49584;SDS011;35491;49.142;9.210;2023-01-04T19:26:53;2.67;;;0.70;;
